Time;durP1;ratioP1;P1;durP2;ratioP2;P2;SDS_P1;SDS_P2;PMS_P1;PMS_P2;Temp;Humidity;BMP_temperature;BMP_pressure;BME280_temperature;BME280_humidity;BME280_pressure;Samples;Min_cycle;Max_cycle;Signal;HPM_P1;HPM_P2
2022/11/04 00:01:19;;;;;;;4.45;3.83;;;;;;;;;;5032509;28;20049;-89
2022/11/04 00:03:46;;;;;;;3.00;2.80;;;;;;;;;;5032903;28;20490;-89
2022/11/04 00:06:12;;;;;;;2.53;2.35;;;;;;;;;;5032744;28;20107;-89
2022/11/04 00:08:39;;;;;;;4.88;2.50;;;;;;;;;;5049129;28;20164;-89
2022/11/04 00:13:50;;;;;;;1.70;1.60;;;;;;;;;;5052437;28;20060;-89
2022/11/04 00:19:01;;;;;;;4.28;3.97;;;;;;;;;;5033157;28;20065;-88
2022/11/04 00:29:57;;;;;;;1.83;1.73;;;;;;;;;;5010049;28;20060;-87
2022/11/04 00:35:08;;;;;;;2.00;1.90;;;;;;;;;;5012605;28;20168;-88
2022/11/04 00:37:36;;;;;;;1.83;1.73;;;;;;;;;;5014145;28;20080;-88
2022/11/04 00:40:02;;;;;;;2.22;2.08;;;;;;;;;;5014117;28;20514;-88
2022/11/04 00:42:30;;;;;;;2.67;2.35;;;;;;;;;;5014486;28;20049;-89
2022/11/04 00:44:57;;;;;;;2.15;2.05;;;;;;;;;;5014444;28;20648;-88
2022/11/04 00:47:23;;;;;;;3.30;2.78;;;;;;;;;;5014004;28;20073;-88
2022/11/04 00:49:50;;;;;;;1.88;1.77;;;;;;;;;;5014241;28;20097;-88
2022/11/04 00:52:16;;;;;;;2.75;2.00;;;;;;;;;;5013926;28;20100;-88
2022/11/04 00:54:43;;;;;;;2.25;2.05;;;;;;;;;;5013515;28;20046;-88
2022/11/04 00:57:10;;;;;;;2.05;1.85;;;;;;;;;;5017179;28;20120;-88
2022/11/04 00:59:38;;;;;;;2.63;2.50;;;;;;;;;;5055358;28;20049;-88
2022/11/04 01:02:05;;;;;;;2.33;2.15;;;;;;;;;;5055658;28;20045;-89
2022/11/04 01:04:31;;;;;;;1.98;1.88;;;;;;;;;;5055807;28;20045;-89
2022/11/04 01:06:58;;;;;;;1.88;1.77;;;;;;;;;;5055528;28;20045;-89
2022/11/04 01:09:24;;;;;;;3.70;3.05;;;;;;;;;;5055647;28;20057;-88
2022/11/04 01:11:51;;;;;;;1.35;1.33;;;;;;;;;;5055809;28;20045;-89
2022/11/04 01:14:18;;;;;;;1.38;1.30;;;;;;;;;;5037033;28;20072;-88
2022/11/04 01:16:45;;;;;;;2.00;1.90;;;;;;;;;;5035735;28;20053;-90
2022/11/04 01:19:12;;;;;;;2.50;2.30;;;;;;;;;;5035659;28;20084;-90
2022/11/04 01:21:39;;;;;;;1.80;1.70;;;;;;;;;;5035860;28;20050;-89
2022/11/04 01:24:06;;;;;;;1.42;1.25;;;;;;;;;;5035400;28;20456;-89
2022/11/04 01:26:32;;;;;;;1.95;1.85;;;;;;;;;;5034733;28;20065;-89
2022/11/04 01:28:59;;;;;;;5.07;2.95;;;;;;;;;;5050319;28;20049;-89
2022/11/04 01:31:27;;;;;;;1.98;1.88;;;;;;;;;;5055560;28;20044;-90
2022/11/04 01:33:55;;;;;;;2.60;2.28;;;;;;;;;;5055559;28;20083;-90
2022/11/04 01:36:22;;;;;;;3.60;3.20;;;;;;;;;;5055204;28;20095;-89
2022/11/04 01:38:48;;;;;;;1.65;1.55;;;;;;;;;;5042217;28;20057;-90
2022/11/04 01:41:17;;;;;;;1.80;1.70;;;;;;;;;;5035225;28;20485;-90
2022/11/04 01:43:44;;;;;;;3.63;3.33;;;;;;;;;;5047415;28;20063;-90
2022/11/04 01:46:12;;;;;;;8.55;3.28;;;;;;;;;;5054415;28;20049;-88
2022/11/04 01:48:39;;;;;;;2.20;2.08;;;;;;;;;;5054843;28;20052;-88
2022/11/04 01:51:07;;;;;;;2.03;1.83;;;;;;;;;;5054629;28;20455;-88
2022/11/04 01:53:35;;;;;;;2.97;2.80;;;;;;;;;;5046608;28;20119;-88
2022/11/04 01:56:03;;;;;;;3.15;2.92;;;;;;;;;;5034062;28;20099;-88
2022/11/04 01:58:31;;;;;;;4.82;2.40;;;;;;;;;;5034404;28;20048;-89
2022/11/04 02:00:58;;;;;;;3.40;3.10;;;;;;;;;;5034682;28;20057;-89
2022/11/04 02:03:28;;;;;;;1.98;1.88;;;;;;;;;;5042809;28;20110;-88
2022/11/04 02:05:54;;;;;;;3.15;2.97;;;;;;;;;;5054439;28;20111;-88
2022/11/04 02:08:22;;;;;;;0.88;0.88;;;;;;;;;;5054176;28;20493;-89
2022/11/04 02:10:52;;;;;;;2.90;2.67;;;;;;;;;;5054084;28;20611;-88
2022/11/04 02:13:17;;;;;;;1.88;1.77;;;;;;;;;;5054371;28;20052;-88
2022/11/04 02:15:46;;;;;;;4.80;3.03;;;;;;;;;;5054379;28;20095;-88
2022/11/04 02:18:21;;;;;;;3.05;2.58;;;;;;;;;;5048247;28;20080;-88
2022/11/04 02:21:05;;;;;;;1.27;1.17;;;;;;;;;;5034044;28;20103;-89
2022/11/04 02:23:55;;;;;;;3.45;3.25;;;;;;;;;;5033914;28;20045;-89
2022/11/04 02:26:32;;;;;;;3.20;3.00;;;;;;;;;;5033114;28;20520;-89
2022/11/04 02:29:17;;;;;;;2.95;2.75;;;;;;;;;;5034142;28;20053;-89
2022/11/04 02:31:50;;;;;;;2.80;1.80;;;;;;;;;;5034477;28;20046;-89
2022/11/04 02:34:19;;;;;;;2.80;2.60;;;;;;;;;;5047350;28;20106;-88
2022/11/04 02:36:47;;;;;;;2.85;2.75;;;;;;;;;;5039000;28;20563;-90
2022/11/04 02:39:19;;;;;;;1.70;1.52;;;;;;;;;;5034458;28;20111;-90
2022/11/04 02:42:01;;;;;;;3.00;2.85;;;;;;;;;;5034090;28;20045;-91
2022/11/04 02:44:30;;;;;;;2.75;2.60;;;;;;;;;;5034360;28;20053;-91
2022/11/04 02:46:59;;;;;;;3.83;3.35;;;;;;;;;;5034036;28;20049;-90
2022/11/04 02:49:28;;;;;;;2.75;2.65;;;;;;;;;;5034208;28;20050;-91
2022/11/04 02:51:57;;;;;;;2.60;2.47;;;;;;;;;;5033737;28;20045;-89
2022/11/04 02:54:26;;;;;;;3.40;3.10;;;;;;;;;;5033613;28;20053;-89
2022/11/04 02:56:54;;;;;;;2.33;2.13;;;;;;;;;;5033288;28;20092;-90
2022/11/04 02:59:22;;;;;;;6.35;4.10;;;;;;;;;;5032650;28;20056;-90
2022/11/04 03:01:49;;;;;;;1.38;1.27;;;;;;;;;;5016104;28;20058;-89
2022/11/04 03:04:19;;;;;;;1.30;1.20;;;;;;;;;;5037877;28;20099;-89
2022/11/04 03:06:48;;;;;;;2.83;2.28;;;;;;;;;;5053408;28;20464;-90
2022/11/04 03:09:15;;;;;;;3.15;2.88;;;;;;;;;;5041666;28;20107;-90
2022/11/04 03:11:43;;;;;;;3.40;3.20;;;;;;;;;;5033449;28;20049;-90
2022/11/04 03:14:12;;;;;;;3.00;2.80;;;;;;;;;;5044315;28;20108;-89
2022/11/04 03:16:40;;;;;;;4.18;3.00;;;;;;;;;;5053289;28;20110;-90
2022/11/04 03:19:09;;;;;;;2.03;1.85;;;;;;;;;;5052971;28;20053;-89
2022/11/04 03:21:39;;;;;;;4.93;2.83;;;;;;;;;;5053557;28;20124;-89
2022/11/04 03:24:06;;;;;;;3.22;2.92;;;;;;;;;;5044108;28;20050;-89
2022/11/04 03:26:35;;;;;;;2.58;2.10;;;;;;;;;;5034600;28;20049;-89
2022/11/04 03:29:07;;;;;;;1.98;1.88;;;;;;;;;;5034504;28;20095;-89
2022/11/04 03:31:39;;;;;;;4.10;1.23;;;;;;;;;;5034263;28;20061;-89
2022/11/04 03:34:06;;;;;;;1.85;1.75;;;;;;;;;;5033491;28;20056;-89
2022/11/04 03:36:32;;;;;;;3.03;2.83;;;;;;;;;;5032960;28;20053;-89
2022/11/04 03:39:00;;;;;;;1.83;1.70;;;;;;;;;;5040773;28;20662;-89
2022/11/04 03:41:30;;;;;;;3.55;3.35;;;;;;;;;;5052864;28;20049;-89
2022/11/04 03:43:56;;;;;;;1.55;1.45;;;;;;;;;;5053296;28;20048;-89
2022/11/04 03:46:24;;;;;;;2.70;2.45;;;;;;;;;;5052477;28;20107;-89
2022/11/04 03:48:51;;;;;;;3.63;3.45;;;;;;;;;;5039649;28;20695;-90
2022/11/04 03:51:17;;;;;;;3.08;2.88;;;;;;;;;;5052702;28;20547;-89
2022/11/04 03:53:44;;;;;;;1.20;1.10;;;;;;;;;;5053060;28;20057;-89
2022/11/04 03:56:27;;;;;;;7.13;3.03;;;;;;;;;;5052938;28;20044;-90
2022/11/04 03:58:58;;;;;;;2.70;2.58;;;;;;;;;;5052877;28;20050;-90
2022/11/04 04:01:25;;;;;;;;;;;;;;;;;;5053375;28;20441;-88
2022/11/04 04:03:54;;;;;;;2.88;1.50;;;;;;;;;;5052450;28;19990;-87
2022/11/04 04:06:24;;;;;;;1.42;1.33;;;;;;;;;;5052186;28;20049;-88
2022/11/04 04:08:53;;;;;;;2.30;2.20;;;;;;;;;;5047821;28;20053;-89
2022/11/04 04:11:21;;;;;;;3.22;3.05;;;;;;;;;;5036713;28;20053;-90
2022/11/04 04:13:54;;;;;;;3.72;3.05;;;;;;;;;;5036557;28;20488;-88
2022/11/04 04:16:22;;;;;;;3.13;2.90;;;;;;;;;;5036221;28;20049;-88
2022/11/04 04:18:50;;;;;;;2.08;1.75;;;;;;;;;;5036208;28;20061;-88
2022/11/04 04:21:20;;;;;;;1.98;1.88;;;;;;;;;;5036876;28;20100;-89
2022/11/04 04:29:19;;;;;;;2.08;1.90;;;;;;;;;;5036315;28;20540;-89
2022/11/04 04:31:51;;;;;;;1.92;1.83;;;;;;;;;;5036420;28;20049;-89
2022/11/04 04:34:19;;;;;;;1.60;1.50;;;;;;;;;;5036618;28;20463;-90
2022/11/04 04:36:46;;;;;;;2.33;2.17;;;;;;;;;;5036224;28;20559;-90
2022/11/04 04:44:59;;;;;;;5.80;1.52;;;;;;;;;;5036030;28;20134;-90
2022/11/04 04:47:26;;;;;;;1.70;1.60;;;;;;;;;;5036045;28;20057;-90
2022/11/04 04:49:53;;;;;;;3.05;2.72;;;;;;;;;;5035924;28;20041;-90
2022/11/04 04:52:20;;;;;;;1.50;1.40;;;;;;;;;;5036132;28;20058;-89
2022/11/04 04:54:47;;;;;;;2.00;1.65;;;;;;;;;;5046073;28;20053;-90
2022/11/04 04:57:13;;;;;;;1.40;1.38;;;;;;;;;;5056201;28;20049;-89
2022/11/04 04:59:40;;;;;;;11.40;2.03;;;;;;;;;;5046714;28;20199;-90
2022/11/04 05:02:08;;;;;;;2.28;2.15;;;;;;;;;;5035656;28;20087;-89
2022/11/04 05:04:34;;;;;;;1.83;1.73;;;;;;;;;;5035367;28;20104;-89
2022/11/04 05:07:01;;;;;;;2.90;2.15;;;;;;;;;;5036089;28;20045;-89
2022/11/04 05:09:27;;;;;;;1.65;1.55;;;;;;;;;;5042139;28;20053;-89
2022/11/04 05:11:54;;;;;;;9.13;3.65;;;;;;;;;;5055228;28;20045;-89
2022/11/04 05:14:20;;;;;;;6.47;2.10;;;;;;;;;;5055602;28;20052;-89
2022/11/04 05:16:47;;;;;;;3.90;2.67;;;;;;;;;;5055059;28;20489;-89
2022/11/04 05:19:14;;;;;;;1.33;1.23;;;;;;;;;;5054969;28;20103;-89
2022/11/04 05:21:41;;;;;;;8.02;4.43;;;;;;;;;;5054496;28;20107;-89
2022/11/04 05:24:08;;;;;;;2.08;1.98;;;;;;;;;;5055064;28;20045;-89
2022/11/04 05:26:34;;;;;;;1.42;1.33;;;;;;;;;;5055400;28;20489;-89
2022/11/04 05:29:00;;;;;;;4.95;2.35;;;;;;;;;;5053366;28;20095;-89
2022/11/04 05:31:29;;;;;;;2.72;2.53;;;;;;;;;;5035340;28;20445;-89
2022/11/04 05:33:55;;;;;;;2.30;2.20;;;;;;;;;;5035913;28;20054;-89
2022/11/04 05:36:23;;;;;;;3.17;2.45;;;;;;;;;;5054978;28;20447;-89
2022/11/04 05:38:50;;;;;;;8.23;3.50;;;;;;;;;;5054774;28;20562;-89
2022/11/04 05:41:24;;;;;;;1.25;1.15;;;;;;;;;;5049148;28;20045;-89
2022/11/04 05:43:51;;;;;;;1.73;1.60;;;;;;;;;;5014986;28;20049;-90
2022/11/04 05:46:17;;;;;;;1.33;1.23;;;;;;;;;;5044058;28;20053;-89
2022/11/04 05:48:44;;;;;;;6.65;2.42;;;;;;;;;;5033933;28;20053;-89
2022/11/04 05:51:12;;;;;;;2.80;2.60;;;;;;;;;;5034597;28;20107;-88
2022/11/04 05:53:40;;;;;;;3.00;2.17;;;;;;;;;;5034352;28;20049;-88
2022/11/04 05:56:07;;;;;;;2.60;2.40;;;;;;;;;;5028221;28;20497;-88
2022/11/04 05:58:33;;;;;;;1.98;1.88;;;;;;;;;;5033769;28;20050;-88
2022/11/04 06:01:11;;;;;;;4.45;3.97;;;;;;;;;;5050736;28;20110;-89
2022/11/04 06:03:37;;;;;;;5.75;4.32;;;;;;;;;;5044903;28;20046;-90
2022/11/04 06:06:04;;;;;;;2.60;2.38;;;;;;;;;;5034507;28;20049;-90
2022/11/04 06:08:30;;;;;;;3.67;3.38;;;;;;;;;;5034072;28;20103;-89
2022/11/04 06:10:58;;;;;;;3.90;3.60;;;;;;;;;;5029285;28;20781;-89
2022/11/04 06:13:25;;;;;;;3.25;2.95;;;;;;;;;;5032322;28;20481;-88
2022/11/04 06:15:51;;;;;;;2.67;2.55;;;;;;;;;;5033894;28;20045;-88
2022/11/04 06:18:18;;;;;;;2.97;2.78;;;;;;;;;;5033745;28;20045;-88
2022/11/04 06:20:44;;;;;;;3.75;2.80;;;;;;;;;;5033495;28;20080;-89
2022/11/04 06:23:11;;;;;;;2.97;2.70;;;;;;;;;;5033997;28;20049;-88
2022/11/04 06:25:37;;;;;;;3.35;3.13;;;;;;;;;;5044564;28;20075;-88
2022/11/04 06:28:05;;;;;;;8.27;4.25;;;;;;;;;;5033021;28;20107;-89
2022/11/04 06:30:32;;;;;;;4.20;3.80;;;;;;;;;;5033290;28;20099;-89
2022/11/04 06:32:58;;;;;;;2.55;2.33;;;;;;;;;;5024313;28;20046;-90
2022/11/04 06:35:29;;;;;;;3.60;2.92;;;;;;;;;;5043012;28;20048;-88
2022/11/04 06:37:56;;;;;;;2.92;2.60;;;;;;;;;;5026796;28;20053;-89
2022/11/04 06:40:22;;;;;;;3.22;2.97;;;;;;;;;;5032905;28;20485;-88
2022/11/04 06:42:49;;;;;;;3.83;3.55;;;;;;;;;;5033328;28;20456;-88
2022/11/04 06:45:17;;;;;;;4.22;3.92;;;;;;;;;;5033448;28;20052;-89
2022/11/04 06:47:43;;;;;;;3.80;3.28;;;;;;;;;;5032342;28;20058;-87
2022/11/04 06:50:11;;;;;;;6.38;4.00;;;;;;;;;;5032620;28;20053;-86
2022/11/04 06:52:37;;;;;;;8.48;3.85;;;;;;;;;;5032897;28;20053;-86
2022/11/04 06:55:04;;;;;;;5.40;4.03;;;;;;;;;;5032093;28;20483;-86
2022/11/04 06:57:30;;;;;;;6.47;2.95;;;;;;;;;;5032327;28;20128;-87
2022/11/04 06:59:57;;;;;;;3.88;3.50;;;;;;;;;;5032466;28;20375;-86
2022/11/04 07:02:25;;;;;;;3.38;2.80;;;;;;;;;;5032676;28;20053;-86
2022/11/04 07:04:51;;;;;;;3.05;2.85;;;;;;;;;;5031631;28;20046;-86
2022/11/04 07:07:18;;;;;;;4.50;4.10;;;;;;;;;;5032452;28;20099;-86
2022/11/04 07:09:44;;;;;;;2.72;2.53;;;;;;;;;;5031962;28;20046;-87
2022/11/04 07:12:11;;;;;;;5.03;4.10;;;;;;;;;;5032043;28;20053;-86
2022/11/04 07:14:38;;;;;;;4.53;4.10;;;;;;;;;;5032580;28;20057;-86
2022/11/04 07:17:04;;;;;;;9.23;3.63;;;;;;;;;;5033469;28;20489;-86
2022/11/04 07:19:32;;;;;;;11.30;4.93;;;;;;;;;;5036241;28;20057;-86
2022/11/04 07:21:59;;;;;;;5.60;5.05;;;;;;;;;;5024487;28;20045;-86
2022/11/04 07:24:25;;;;;;;4.65;4.25;;;;;;;;;;5014194;28;20045;-87
2022/11/04 07:26:54;;;;;;;4.20;3.25;;;;;;;;;;5045753;28;20571;-87
2022/11/04 07:29:20;;;;;;;6.32;5.53;;;;;;;;;;5032573;28;20057;-86
2022/11/04 07:31:47;;;;;;;5.70;4.57;;;;;;;;;;5032122;28;20493;-87
2022/11/04 07:34:13;;;;;;;7.15;4.68;;;;;;;;;;5032311;28;20049;-87
2022/11/04 07:36:41;;;;;;;6.07;3.45;;;;;;;;;;5032352;28;20041;-87
2022/11/04 07:39:07;;;;;;;3.28;2.97;;;;;;;;;;5035340;28;20455;-87
2022/11/04 07:41:34;;;;;;;16.17;4.65;;;;;;;;;;5035592;28;20457;-88
2022/11/04 07:44:04;;;;;;;5.00;4.55;;;;;;;;;;5031376;28;20045;-88
2022/11/04 07:46:30;;;;;;;5.60;5.15;;;;;;;;;;5031665;28;20061;-88
2022/11/04 07:48:57;;;;;;;5.28;4.78;;;;;;;;;;5026894;28;20092;-88
2022/11/04 07:51:24;;;;;;;3.50;3.20;;;;;;;;;;5032149;28;20394;-87
2022/11/04 07:53:52;;;;;;;5.15;3.33;;;;;;;;;;5031243;28;20107;-86
2022/11/04 07:56:18;;;;;;;4.93;4.55;;;;;;;;;;5028638;28;20057;-88
2022/11/04 07:58:45;;;;;;;4.55;4.18;;;;;;;;;;5027689;28;20045;-88
2022/11/04 08:01:13;;;;;;;3.00;2.75;;;;;;;;;;5031722;28;20132;-88
2022/11/04 08:03:40;;;;;;;6.70;5.75;;;;;;;;;;5031602;28;20050;-87
2022/11/04 08:06:07;;;;;;;5.53;4.97;;;;;;;;;;5031486;28;20050;-88
2022/11/04 08:08:34;;;;;;;6.45;5.05;;;;;;;;;;5030970;28;20150;-87
2022/11/04 08:11:03;;;;;;;9.30;7.18;;;;;;;;;;5031638;28;20134;-88
2022/11/04 08:13:30;;;;;;;6.20;5.60;;;;;;;;;;5035227;28;20045;-87
2022/11/04 08:15:57;;;;;;;6.07;5.57;;;;;;;;;;5031340;28;20099;-87
2022/11/04 08:18:23;;;;;;;6.28;5.60;;;;;;;;;;5035767;28;20406;-87
2022/11/04 08:20:51;;;;;;;9.55;5.90;;;;;;;;;;5031542;28;20111;-88
2022/11/04 08:23:18;;;;;;;7.63;6.88;;;;;;;;;;5031583;28;20112;-87
2022/11/04 08:25:44;;;;;;;6.40;5.95;;;;;;;;;;5031085;28;20655;-87
2022/11/04 08:28:16;;;;;;;8.32;7.63;;;;;;;;;;5031314;28;20107;-87
2022/11/04 08:30:51;;;;;;;6.32;5.82;;;;;;;;;;5031572;28;20053;-87
2022/11/04 08:33:17;;;;;;;6.40;5.95;;;;;;;;;;5031385;28;20049;-88
2022/11/04 08:35:44;;;;;;;6.25;5.75;;;;;;;;;;5035575;28;20049;-88
2022/11/04 08:38:10;;;;;;;6.22;5.72;;;;;;;;;;5024090;28;20080;-87
2022/11/04 08:40:37;;;;;;;6.38;5.60;;;;;;;;;;5026119;28;20042;-87
2022/11/04 08:43:03;;;;;;;6.65;6.03;;;;;;;;;;5037712;28;20053;-87
2022/11/04 08:45:31;;;;;;;6.38;5.88;;;;;;;;;;5036764;28;20557;-88
2022/11/04 08:47:58;;;;;;;10.63;7.55;;;;;;;;;;5037466;28;20045;-88
2022/11/04 08:50:26;;;;;;;12.38;7.85;;;;;;;;;;5024716;28;20115;-87
2022/11/04 08:52:53;;;;;;;6.80;6.25;;;;;;;;;;5032834;28;20115;-87
2022/11/04 08:55:20;;;;;;;4.93;4.60;;;;;;;;;;5030861;28;20563;-87
2022/11/04 08:57:46;;;;;;;6.95;6.25;;;;;;;;;;5034020;28;20095;-87
2022/11/04 09:00:15;;;;;;;6.45;5.95;;;;;;;;;;5034387;28;20456;-87
2022/11/04 09:02:42;;;;;;;5.82;4.88;;;;;;;;;;5042481;28;20065;-88
2022/11/04 09:05:09;;;;;;;7.57;6.38;;;;;;;;;;5034797;28;20049;-88
2022/11/04 09:07:36;;;;;;;7.25;6.53;;;;;;;;;;5050721;28;20053;-87
2022/11/04 09:10:02;;;;;;;4.93;4.43;;;;;;;;;;5033869;28;20045;-87
2022/11/04 09:12:29;;;;;;;8.05;7.30;;;;;;;;;;5034578;28;20053;-88
2022/11/04 09:14:55;;;;;;;10.63;7.10;;;;;;;;;;5034602;28;20058;-88
2022/11/04 09:17:22;;;;;;;6.80;5.65;;;;;;;;;;5036464;28;20049;-88
2022/11/04 09:19:50;;;;;;;7.95;5.95;;;;;;;;;;5028628;28;20049;-87
2022/11/04 09:22:17;;;;;;;7.18;6.53;;;;;;;;;;5031086;28;20045;-88
2022/11/04 09:24:43;;;;;;;6.57;5.55;;;;;;;;;;5034518;28;20116;-87
2022/11/04 09:27:10;;;;;;;7.35;6.78;;;;;;;;;;5034626;28;20054;-88
2022/11/04 09:29:36;;;;;;;8.57;7.80;;;;;;;;;;5034648;28;20049;-88
2022/11/04 09:32:03;;;;;;;5.53;5.03;;;;;;;;;;5025923;28;20589;-88
2022/11/04 09:34:29;;;;;;;8.30;7.50;;;;;;;;;;5039173;28;20167;-87
2022/11/04 09:36:57;;;;;;;8.00;7.40;;;;;;;;;;5041554;28;20045;-88
2022/11/04 09:39:24;;;;;;;7.85;7.28;;;;;;;;;;5033948;28;20555;-87
2022/11/04 09:42:09;;;;;;;11.88;7.97;;;;;;;;;;5034507;28;20072;-87
2022/11/04 09:44:41;;;;;;;6.82;6.25;;;;;;;;;;5034456;28;20132;-88
2022/11/04 09:47:09;;;;;;;6.75;6.05;;;;;;;;;;5034299;28;20049;-87
2022/11/04 09:49:37;;;;;;;8.20;7.60;;;;;;;;;;5034005;28;20046;-87
2022/11/04 09:52:08;;;;;;;7.93;7.32;;;;;;;;;;5029802;28;20049;-88
2022/11/04 09:54:38;;;;;;;8.93;6.95;;;;;;;;;;5027571;28;20100;-88
2022/11/04 09:57:05;;;;;;;5.68;5.20;;;;;;;;;;5038326;28;20052;-88
2022/11/04 09:59:34;;;;;;;6.03;5.53;;;;;;;;;;5033599;28;20449;-88
2022/11/04 10:02:13;;;;;;;7.88;7.47;;;;;;;;;;5039981;28;20056;-88
2022/11/04 10:04:45;;;;;;;7.88;7.07;;;;;;;;;;5022141;28;20054;-88
2022/11/04 10:07:18;;;;;;;8.73;8.05;;;;;;;;;;5043881;28;20110;-93
2022/11/04 10:09:51;;;;;;;6.15;5.75;;;;;;;;;;5034224;28;20060;-90
2022/11/04 10:12:21;;;;;;;9.27;7.93;;;;;;;;;;5039704;28;20053;-90
2022/11/04 10:15:00;;;;;;;6.35;5.88;;;;;;;;;;5033642;28;20041;-93
2022/11/04 10:17:34;;;;;;;8.98;8.18;;;;;;;;;;5035776;28;20045;-87
2022/11/04 10:20:09;;;;;;;11.80;10.90;;;;;;;;;;5013533;28;20115;-89
2022/11/04 10:22:41;;;;;;;9.23;8.63;;;;;;;;;;5046810;28;20176;-88
2022/11/04 10:25:10;;;;;;;8.70;8.10;;;;;;;;;;5026104;28;20104;-89
2022/11/04 10:27:38;;;;;;;10.32;9.63;;;;;;;;;;5038956;28;20049;-89
2022/11/04 10:30:08;;;;;;;9.52;8.75;;;;;;;;;;5032878;28;20053;-88
2022/11/04 10:32:37;;;;;;;7.72;7.20;;;;;;;;;;5048126;28;20064;-89
2022/11/04 10:35:05;;;;;;;10.65;9.85;;;;;;;;;;5036253;28;20062;-89
2022/11/04 10:37:34;;;;;;;7.95;7.35;;;;;;;;;;5033268;28;20095;-90
2022/11/04 10:40:08;;;;;;;10.82;9.77;;;;;;;;;;5033359;28;20049;-91
2022/11/04 10:42:34;;;;;;;10.25;9.63;;;;;;;;;;5033297;28;20413;-89
2022/11/04 10:45:01;;;;;;;10.05;9.27;;;;;;;;;;5033313;28;20111;-89
2022/11/04 10:47:33;;;;;;;9.68;7.55;;;;;;;;;;5033181;28;20107;-88
2022/11/04 10:50:15;;;;;;;8.93;8.00;;;;;;;;;;5033422;28;20052;-89
2022/11/04 10:52:41;;;;;;;6.90;6.35;;;;;;;;;;5049782;28;20402;-89
2022/11/04 10:55:14;;;;;;;9.02;8.32;;;;;;;;;;5053071;28;20056;-89
2022/11/04 10:57:41;;;;;;;10.65;9.52;;;;;;;;;;5033989;28;20049;-88
2022/11/04 11:00:08;;;;;;;9.55;8.70;;;;;;;;;;5032850;28;20057;-88
2022/11/04 11:02:43;;;;;;;8.38;7.68;;;;;;;;;;5041469;28;20049;-88
2022/11/04 11:05:15;;;;;;;11.43;10.57;;;;;;;;;;5032918;28;20114;-88
2022/11/04 11:07:41;;;;;;;7.50;6.80;;;;;;;;;;5013403;28;20045;-87
2022/11/04 12:07:49;;;;;;;9.90;9.20;;;;;;;;;;4731299;30;20129;-89
2022/11/04 12:10:21;;;;;;;10.50;9.95;;;;;;;;;;4747690;30;20056;-89
2022/11/04 12:12:52;;;;;;;11.65;10.75;;;;;;;;;;4748919;30;20147;-89
2022/11/04 12:15:29;;;;;;;10.20;9.40;;;;;;;;;;4792097;29;20051;-89
2022/11/04 12:18:02;;;;;;;8.52;7.93;;;;;;;;;;4802383;29;20061;-89
2022/11/04 12:32:01;;;;;;;9.73;8.40;;;;;;;;;;4929977;28;20070;-88
2022/11/04 12:34:35;;;;;;;7.57;7.00;;;;;;;;;;4974711;28;20439;-89
2022/11/04 12:37:11;;;;;;;8.60;7.75;;;;;;;;;;4974172;28;20138;-90
2022/11/04 12:39:44;;;;;;;10.88;10.05;;;;;;;;;;4974033;28;20074;-89
2022/11/04 12:42:16;;;;;;;8.18;7.68;;;;;;;;;;4974228;28;20110;-89
2022/11/04 12:44:48;;;;;;;10.68;9.60;;;;;;;;;;4968340;28;20051;-89
2022/11/04 12:47:22;;;;;;;8.90;8.20;;;;;;;;;;4959488;28;20097;-89
2022/11/04 12:50:03;;;;;;;10.80;10.00;;;;;;;;;;4976910;28;20542;-89
2022/11/04 12:52:39;;;;;;;8.15;7.55;;;;;;;;;;4959946;28;20046;-88
2022/11/04 12:55:14;;;;;;;8.85;7.68;;;;;;;;;;4973853;28;20578;-86
2022/11/04 12:57:44;;;;;;;11.35;10.57;;;;;;;;;;4974022;28;20046;-89
2022/11/04 13:00:12;;;;;;;10.40;9.70;;;;;;;;;;5003429;28;20059;-87
2022/11/04 13:02:43;;;;;;;10.73;9.73;;;;;;;;;;5048976;28;20049;-87
2022/11/04 13:05:18;;;;;;;9.93;9.02;;;;;;;;;;5036708;28;20460;-87
2022/11/04 13:07:48;;;;;;;12.13;11.32;;;;;;;;;;5042559;28;20119;-87
2022/11/04 13:10:17;;;;;;;8.40;7.32;;;;;;;;;;5054940;28;20060;-87
2022/11/04 13:12:45;;;;;;;11.02;10.32;;;;;;;;;;5054913;28;20053;-87
2022/11/04 13:15:15;;;;;;;12.60;11.77;;;;;;;;;;5055086;28;20389;-88
2022/11/04 13:17:44;;;;;;;10.57;9.70;;;;;;;;;;5048116;28;20046;-87
2022/11/04 13:20:17;;;;;;;9.77;9.00;;;;;;;;;;5034718;28;20083;-88
2022/11/04 13:22:45;;;;;;;10.07;9.32;;;;;;;;;;5040999;28;20049;-88
2022/11/04 13:25:14;;;;;;;12.82;11.85;;;;;;;;;;5054627;28;20041;-88
2022/11/04 13:27:43;;;;;;;11.10;10.23;;;;;;;;;;5054646;28;20124;-88
2022/11/04 13:30:20;;;;;;;8.57;7.80;;;;;;;;;;5054822;28;20055;-87
2022/11/04 13:32:52;;;;;;;8.10;7.40;;;;;;;;;;5047939;28;20053;-88
2022/11/04 13:35:23;;;;;;;8.90;8.10;;;;;;;;;;5034861;28;20050;-87
2022/11/04 13:37:55;;;;;;;10.18;9.10;;;;;;;;;;5040402;28;20041;-87
2022/11/04 13:40:24;;;;;;;9.10;8.30;;;;;;;;;;5019243;28;20120;-86
2022/11/04 13:43:36;;;;;;;10.70;8.98;;;;;;;;;;5033222;28;20099;-89
2022/11/04 13:45:46;;;;;;;8.63;7.95;;;;;;;;;;5039303;28;20055;-89
2022/11/04 13:48:18;;;;;;;9.55;8.75;;;;;;;;;;5034316;28;20115;-89
2022/11/04 13:50:44;;;;;;;10.45;9.65;;;;;;;;;;5033592;28;20057;-88
2022/11/04 13:53:11;;;;;;;7.28;6.70;;;;;;;;;;5042186;28;20048;-86
2022/11/04 13:55:48;;;;;;;11.13;9.98;;;;;;;;;;5035870;28;20049;-89
2022/11/04 13:58:17;;;;;;;9.65;8.70;;;;;;;;;;5042387;28;20469;-89
2022/11/04 14:01:04;;;;;;;9.10;8.20;;;;;;;;;;5054013;28;20057;-87
2022/11/04 14:03:51;;;;;;;18.40;9.50;;;;;;;;;;5046275;28;20054;-89
2022/11/04 14:06:17;;;;;;;9.63;8.98;;;;;;;;;;5030125;28;20409;-88
2022/11/04 14:08:59;;;;;;;8.32;7.63;;;;;;;;;;5032990;28;20046;-88
2022/11/04 14:11:25;;;;;;;8.10;7.15;;;;;;;;;;5034601;28;20050;-88
2022/11/04 14:14:03;;;;;;;7.60;7.03;;;;;;;;;;5033518;28;20515;-89
2022/11/04 14:16:43;;;;;;;7.13;6.53;;;;;;;;;;5033775;28;20088;-88
2022/11/04 14:19:28;;;;;;;9.18;8.48;;;;;;;;;;5033375;28;20064;-89
2022/11/04 14:22:14;;;;;;;7.22;6.55;;;;;;;;;;5033323;28;20103;-88
2022/11/04 14:24:41;;;;;;;8.02;7.32;;;;;;;;;;5033840;28;20111;-88
2022/11/04 14:27:22;;;;;;;8.13;7.38;;;;;;;;;;5034040;28;20049;-89
2022/11/04 14:29:49;;;;;;;10.23;6.28;;;;;;;;;;5033743;28;20064;-88
2022/11/04 14:32:22;;;;;;;7.97;7.38;;;;;;;;;;5033703;28;20103;-88
2022/11/04 14:34:56;;;;;;;10.32;9.23;;;;;;;;;;5033898;28;20110;-88
2022/11/04 14:37:27;;;;;;;8.25;7.65;;;;;;;;;;5034123;28;20114;-89
2022/11/04 14:39:56;;;;;;;7.65;7.00;;;;;;;;;;5031458;28;20056;-88
2022/11/04 14:42:38;;;;;;;7.40;6.80;;;;;;;;;;5032765;28;20045;-88
2022/11/04 14:45:07;;;;;;;13.45;9.68;;;;;;;;;;5032273;28;20080;-88
2022/11/04 14:47:34;;;;;;;10.05;9.25;;;;;;;;;;5033419;28;20058;-87
2022/11/04 14:50:03;;;;;;;7.65;6.85;;;;;;;;;;5053208;28;20122;-88
2022/11/04 14:52:33;;;;;;;9.25;7.85;;;;;;;;;;5045823;28;20056;-87
2022/11/04 14:55:02;;;;;;;12.80;9.13;;;;;;;;;;5013076;28;20564;-88
2022/11/04 14:57:30;;;;;;;9.13;7.20;;;;;;;;;;5012950;28;20549;-88
2022/11/04 14:59:57;;;;;;;10.40;9.60;;;;;;;;;;5032152;28;20107;-89
2022/11/04 15:02:24;;;;;;;10.55;9.57;;;;;;;;;;5032560;28;20552;-89
2022/11/04 15:04:52;;;;;;;6.97;6.50;;;;;;;;;;5032643;28;20099;-89
2022/11/04 15:07:31;;;;;;;7.20;6.18;;;;;;;;;;5032209;28;20567;-89
2022/11/04 15:09:59;;;;;;;6.18;5.68;;;;;;;;;;5021006;28;20045;-89
2022/11/04 15:15:26;;;;;;;6.70;6.03;;;;;;;;;;5012710;28;20139;-89
2022/11/04 15:17:53;;;;;;;7.90;6.22;;;;;;;;;;5025301;28;20075;-89
2022/11/04 15:20:22;;;;;;;6.63;6.15;;;;;;;;;;5033144;28;20058;-88
2022/11/04 15:22:49;;;;;;;9.65;7.70;;;;;;;;;;5034386;28;20049;-89
2022/11/04 15:25:19;;;;;;;8.07;5.80;;;;;;;;;;5052223;28;20045;-89
2022/11/04 15:27:45;;;;;;;8.32;5.95;;;;;;;;;;5044536;28;20042;-89
2022/11/04 15:30:18;;;;;;;7.35;6.75;;;;;;;;;;5052293;28;20057;-89
2022/11/04 15:32:52;;;;;;;7.07;6.63;;;;;;;;;;5042775;28;20099;-88
2022/11/04 15:35:19;;;;;;;7.68;6.57;;;;;;;;;;5034206;28;20150;-88
2022/11/04 15:37:46;;;;;;;8.00;7.22;;;;;;;;;;5035922;28;20107;-89
2022/11/04 15:40:13;;;;;;;6.78;6.18;;;;;;;;;;5042753;28;20107;-89
2022/11/04 15:42:43;;;;;;;10.98;8.13;;;;;;;;;;5031940;28;20095;-89
2022/11/04 15:45:43;;;;;;;7.05;6.38;;;;;;;;;;5023428;28;20081;-90
2022/11/04 15:48:26;;;;;;;5.75;5.28;;;;;;;;;;5012618;28;20049;-89
2022/11/04 15:50:52;;;;;;;;;;;;;;;;;;5028849;28;20049;-89
2022/11/04 15:53:18;;;;;;;7.63;6.05;;;;;;;;;;5009737;28;20329;-89
2022/11/04 15:55:47;;;;;;;9.10;6.97;;;;;;;;;;5010195;28;20046;-89
2022/11/04 15:58:15;;;;;;;11.27;8.13;;;;;;;;;;5011717;28;20104;-89
2022/11/04 16:00:43;;;;;;;11.13;6.93;;;;;;;;;;5029356;28;20819;-88
2022/11/04 16:03:17;;;;;;;7.90;7.20;;;;;;;;;;5009514;28;20493;-89
2022/11/04 16:05:44;;;;;;;8.48;7.05;;;;;;;;;;5000191;28;20041;-88
2022/11/04 16:08:14;;;;;;;6.53;5.95;;;;;;;;;;5014953;28;20050;-89
2022/11/04 16:10:41;;;;;;;15.07;6.97;;;;;;;;;;5033756;28;20536;-90
2022/11/04 16:13:20;;;;;;;10.52;9.50;;;;;;;;;;5033439;28;20049;-90
2022/11/04 16:15:48;;;;;;;9.52;8.55;;;;;;;;;;5013729;28;20135;-89
2022/11/04 16:18:21;;;;;;;8.07;6.35;;;;;;;;;;5016912;28;20049;-89
2022/11/04 16:20:49;;;;;;;7.00;6.30;;;;;;;;;;5018405;28;20054;-90
2022/11/04 16:23:17;;;;;;;8.77;7.82;;;;;;;;;;5015878;28;20423;-90
2022/11/04 16:25:44;;;;;;;7.93;5.57;;;;;;;;;;5034221;28;20394;-89
2022/11/04 16:28:18;;;;;;;8.43;5.95;;;;;;;;;;5031285;28;20045;-90
2022/11/04 16:30:56;;;;;;;8.65;6.10;;;;;;;;;;5022153;28;20153;-90
2022/11/04 16:33:23;;;;;;;7.75;5.90;;;;;;;;;;5018611;28;20046;-89